Time;durP1;ratioP1;P1;durP2;ratioP2;P2;SDS_P1;SDS_P2;PMS_P1;PMS_P2;Temp;Humidity;BMP_temperature;BMP_pressure;BME280_temperature;BME280_humidity;BME280_pressure;Samples;Min_cycle;Max_cycle;Signal;HPM_P1;HPM_P2
2023/04/27 00:00:59;;;;;;;1.20;0.20;;;3.40;94.00;;;;;;4920881;29;20146;-88
2023/04/27 00:04:19;;;;;;;0.10;0.10;;;3.00;93.70;;;;;;4931634;29;20102;-88
2023/04/27 00:06:52;;;;;;;0.47;0.47;;;3.00;92.30;;;;;;4935748;29;20052;-88
2023/04/27 00:09:20;;;;;;;0.10;0.08;;;3.40;91.40;;;;;;4905848;29;20062;-89
2023/04/27 00:11:53;;;;;;;0.00;0.00;;;3.00;92.60;;;;;;4904182;29;20050;-89
2023/04/27 00:14:22;;;;;;;0.88;0.32;;;2.90;92.70;;;;;;4936253;29;20433;-89
2023/04/27 00:16:51;;;;;;;0.00;0.00;;;2.90;92.90;;;;;;4936872;29;20465;-89
2023/04/27 00:19:19;;;;;;;0.00;0.00;;;3.30;93.00;;;;;;4921171;29;20401;-89
2023/04/27 00:21:45;;;;;;;0.00;0.00;;;2.90;92.10;;;;;;4905602;29;20078;-88
2023/04/27 00:24:16;;;;;;;0.00;0.00;;;2.90;91.90;;;;;;4920747;29;20051;-88
2023/04/27 00:26:42;;;;;;;0.03;0.03;;;2.90;91.80;;;;;;4920540;29;20048;-88
2023/04/27 00:29:13;;;;;;;0.00;0.00;;;3.40;92.50;;;;;;4920497;29;20395;-88
2023/04/27 00:31:39;;;;;;;0.10;0.10;;;2.90;93.30;;;;;;4909146;29;20043;-88
2023/04/27 00:34:08;;;;;;;0.00;0.00;;;2.80;93.80;;;;;;4923580;29;20082;-89
2023/04/27 00:36:34;;;;;;;0.00;0.00;;;3.00;93.90;;;;;;4924782;29;20079;-89
2023/04/27 00:39:13;;;;;;;;;;;;;;;;;;;;;
2023/04/27 00:42:00;;;;;;;0.10;0.00;;;2.70;94.20;;;;;;4941490;29;20441;-89
2023/04/27 00:44:29;;;;;;;0.93;0.57;;;2.60;93.90;;;;;;4925165;29;20052;-87
2023/04/27 00:47:12;;;;;;;0.25;0.10;;;2.60;93.90;;;;;;4938074;29;20044;-88
2023/04/27 00:49:48;;;;;;;0.15;0.15;;;2.90;94.60;;;;;;4924324;29;20043;-89
2023/04/27 00:52:15;;;;;;;0.00;0.00;;;2.60;93.40;;;;;;4924313;29;20473;-89
2023/04/27 00:54:44;;;;;;;0.00;0.00;;;2.60;94.00;;;;;;4923779;29;20047;-89
2023/04/27 00:57:23;;;;;;;;;;;;;;;;;;;;;
2023/04/27 00:59:54;;;;;;;0.10;0.10;;;2.90;94.20;;;;;;4943485;29;20048;-89
2023/04/27 01:02:40;;;;;;;0.00;0.00;;;2.50;94.50;;;;;;4926721;29;20055;-89
2023/04/27 01:05:13;;;;;;;0.00;0.00;;;2.40;94.70;;;;;;4908971;29;20051;-89
2023/04/27 01:07:42;;;;;;;0.00;0.00;;;2.40;94.00;;;;;;4923375;29;20048;-89
2023/04/27 01:10:14;;;;;;;0.08;0.00;;;2.50;94.50;;;;;;4923810;29;20107;-89
2023/04/27 01:12:52;;;;;;;0.00;0.00;;;2.40;94.60;;;;;;4923282;29;20591;-89
2023/04/27 01:15:37;;;;;;;1.55;0.30;;;2.60;94.90;;;;;;4923212;29;20551;-89
2023/04/27 01:18:14;;;;;;;;;;;;;;;;;;;;;
2023/04/27 01:20:47;;;;;;;0.08;0.00;;;2.40;94.40;;;;;;4939520;29;20087;-89
2023/04/27 01:23:20;;;;;;;0.00;0.00;;;2.40;93.50;;;;;;4908798;29;20099;-89
2023/04/27 01:26:12;;;;;;;0.08;0.00;;;2.70;94.50;;;;;;4908930;29;20044;-89
2023/04/27 01:31:53;;;;;;;0.00;0.00;;;2.30;94.40;;;;;;4934844;29;20094;-89
2023/04/27 01:34:21;;;;;;;0.00;0.00;;;2.40;95.40;;;;;;4922936;29;20071;-89
2023/04/27 01:36:47;;;;;;;0.00;0.00;;;2.30;95.90;;;;;;4922511;29;20115;-90
2023/04/27 01:39:20;;;;;;;0.08;0.05;;;2.20;96.10;;;;;;4923422;29;20047;-89
2023/04/27 01:41:49;;;;;;;0.00;0.00;;;2.10;96.20;;;;;;4922355;29;20047;-89
2023/04/27 01:44:32;;;;;;;;;;;;;;;;;;;;;
2023/04/27 01:47:03;;;;;;;0.00;0.00;;;2.90;96.00;;;;;;4924016;29;20094;-89
2023/04/27 01:49:38;;;;;;;0.00;0.00;;;2.20;95.60;;;;;;4924410;29;20060;-89
2023/04/27 01:52:07;;;;;;;0.00;0.00;;;2.10;96.10;;;;;;4922993;29;20039;-89
2023/04/27 01:54:35;;;;;;;0.00;0.00;;;2.30;95.70;;;;;;4922533;29;20436;-89
2023/04/27 01:57:01;;;;;;;0.40;0.10;;;2.10;96.20;;;;;;4922743;29;20048;-89
2023/04/27 01:59:37;;;;;;;0.00;0.00;;;2.10;96.10;;;;;;4923272;29;20107;-89
2023/04/27 02:02:11;;;;;;;0.00;0.00;;;2.00;96.20;;;;;;4907185;29;20052;-88
2023/04/27 02:04:45;;;;;;;3.10;0.38;;;2.70;95.90;;;;;;4926265;29;20063;-89
2023/04/27 02:07:17;;;;;;;0.00;0.00;;;2.60;95.50;;;;;;4910008;29;20130;-89
2023/04/27 02:09:55;;;;;;;0.28;0.28;;;2.20;95.50;;;;;;4925593;29;20054;-89
2023/04/27 02:12:40;;;;;;;0.38;0.10;;;2.00;96.30;;;;;;4910588;29;20047;-89
2023/04/27 02:15:07;;;;;;;0.00;0.00;;;2.60;96.00;;;;;;4925847;29;20051;-89
2023/04/27 02:17:40;;;;;;;0.22;0.22;;;1.90;96.10;;;;;;4924925;29;20194;-89
2023/04/27 02:20:09;;;;;;;0.00;0.00;;;2.40;96.10;;;;;;4910217;29;20138;-89
2023/04/27 02:22:48;;;;;;;0.00;0.00;;;1.90;94.40;;;;;;4925119;29;20150;-89
2023/04/27 02:25:34;;;;;;;0.00;0.00;;;1.90;94.80;;;;;;4926037;29;20047;-89
2023/04/27 02:28:08;;;;;;;0.00;0.00;;;2.30;94.40;;;;;;4941074;29;20392;-88
2023/04/27 02:30:37;;;;;;;0.10;0.10;;;1.90;95.50;;;;;;4926188;29;20106;-89
2023/04/27 02:33:08;;;;;;;0.22;0.22;;;2.00;96.00;;;;;;4925686;29;20079;-89
2023/04/27 02:35:37;;;;;;;0.80;0.25;;;2.10;96.00;;;;;;4925208;29;20138;-88
2023/04/27 02:38:10;;;;;;;0.00;0.00;;;2.20;96.00;;;;;;4925441;29;20499;-88
2023/04/27 02:40:36;;;;;;;1.85;0.10;;;2.20;96.40;;;;;;4910126;29;20054;-88
2023/04/27 02:43:04;;;;;;;0.00;0.00;;;1.70;97.00;;;;;;4925517;29;20082;-89
2023/04/27 02:45:37;;;;;;;0.00;0.00;;;1.80;97.40;;;;;;4926117;29;20054;-88
2023/04/27 02:48:05;;;;;;;0.00;0.00;;;2.00;97.00;;;;;;4924938;29;20047;-88
2023/04/27 02:50:40;;;;;;;0.17;0.17;;;1.60;97.00;;;;;;4924265;29;20090;-89
2023/04/27 02:53:06;;;;;;;;;;;2.40;97.10;;;;;;4925620;29;20476;-89
2023/04/27 02:55:38;;;;;;;0.45;0.20;;;2.20;97.00;;;;;;4926209;29;19929;-88
2023/04/27 02:58:06;;;;;;;0.38;0.13;;;1.60;96.10;;;;;;4924924;29;20047;-88
2023/04/27 03:00:44;;;;;;;;;;;;;;;;;;;;;
2023/04/27 03:03:11;;;;;;;14.27;1.85;;;1.70;95.40;;;;;;4924741;29;20044;-89
2023/04/27 03:05:37;;;;;;;0.25;0.25;;;1.60;96.20;;;;;;4925250;29;20158;-89
2023/04/27 03:08:26;;;;;;;0.00;0.00;;;1.70;94.60;;;;;;4924203;29;20194;-88
2023/04/27 03:10:54;;;;;;;0.00;0.00;;;1.70;95.50;;;;;;4927108;29;20369;-88
2023/04/27 03:13:37;;;;;;;0.00;0.00;;;1.90;96.30;;;;;;4908600;29;20134;-89
2023/04/27 03:16:03;;;;;;;0.90;0.88;;;1.60;94.90;;;;;;4940216;29;20050;-89
2023/04/27 03:18:29;;;;;;;0.00;0.00;;;1.70;94.60;;;;;;4923907;29;20522;-90
2023/04/27 03:21:15;;;;;;;0.00;0.00;;;2.10;95.70;;;;;;4924263;29;20133;-89
2023/04/27 03:23:49;;;;;;;0.20;0.00;;;1.70;96.40;;;;;;4925323;29;20098;-89
2023/04/27 03:26:38;;;;;;;0.00;0.00;;;2.00;96.90;;;;;;4924457;29;20047;-89
2023/04/27 03:29:12;;;;;;;0.10;0.10;;;2.10;97.20;;;;;;4924955;29;20062;-88
2023/04/27 03:31:41;;;;;;;0.38;0.00;;;1.50;96.70;;;;;;4908990;29;20063;-89
2023/04/27 03:34:10;;;;;;;2.28;0.20;;;1.60;96.80;;;;;;4927034;29;20086;-89
2023/04/27 03:36:49;;;;;;;;;;;;;;;;;;;;;
2023/04/27 03:39:23;;;;;;;0.08;0.00;;;2.20;96.60;;;;;;4926763;29;20055;-89
2023/04/27 03:41:52;;;;;;;0.22;0.10;;;1.60;96.20;;;;;;4940189;29;20078;-90
2023/04/27 03:44:20;;;;;;;0.30;0.30;;;1.50;95.00;;;;;;4924064;29;20078;-89
2023/04/27 03:46:51;;;;;;;0.00;0.00;;;1.50;94.40;;;;;;4940706;29;20107;-89
2023/04/27 03:49:26;;;;;;;0.35;0.20;;;1.70;95.40;;;;;;4924081;29;20043;-89
2023/04/27 03:51:52;;;;;;;0.00;0.00;;;1.50;95.80;;;;;;4909521;29;20091;-89
2023/04/27 03:54:18;;;;;;;0.68;0.32;;;1.60;95.10;;;;;;4923919;29;20051;-89
2023/04/27 03:56:49;;;;;;;0.00;0.00;;;1.60;95.70;;;;;;4924126;29;20114;-89
2023/04/27 03:59:15;;;;;;;1.02;0.10;;;2.10;95.30;;;;;;4908256;29;20110;-89
2023/04/27 04:01:46;;;;;;;0.10;0.10;;;1.60;95.60;;;;;;4939502;29;20043;-90
2023/04/27 04:05:04;;;;;;;;;;;;;;;;;;;;;
2023/04/27 04:07:35;;;;;;;0.00;0.00;;;2.20;94.10;;;;;;4913021;29;20047;-89
2023/04/27 04:10:09;;;;;;;0.30;0.10;;;1.50;94.00;;;;;;4908938;29;20044;-90
2023/04/27 04:12:45;;;;;;;0.40;0.15;;;1.40;94.10;;;;;;4909285;29;20051;-89
2023/04/27 04:15:26;;;;;;;;;;;;;;;;;;;;;
2023/04/27 04:17:54;;;;;;;0.00;0.00;;;1.30;95.90;;;;;;4924845;29;20048;-89
2023/04/27 04:20:28;;;;;;;0.00;0.00;;;1.30;94.90;;;;;;4948910;29;20091;-89
2023/04/27 04:22:53;;;;;;;0.00;0.00;;;1.30;95.50;;;;;;4909379;29;20044;-89
2023/04/27 04:25:19;;;;;;;0.00;0.00;;;1.50;96.90;;;;;;4940049;29;20038;-89
2023/04/27 04:27:57;;;;;;;0.00;0.00;;;1.20;96.90;;;;;;4907919;29;20043;-89
2023/04/27 04:30:32;;;;;;;1.17;0.47;;;1.30;96.10;;;;;;4900550;29;20055;-90
2023/04/27 04:33:06;;;;;;;0.00;0.00;;;1.70;97.00;;;;;;4926364;29;20048;-90
2023/04/27 04:35:40;;;;;;;0.10;0.10;;;1.30;96.10;;;;;;4903692;29;20385;-90
2023/04/27 04:38:17;;;;;;;;;;;;;;;;;;;;;
2023/04/27 04:40:50;;;;;;;0.00;0.00;;;1.90;97.20;;;;;;4924486;29;20404;-89
2023/04/27 04:43:15;;;;;;;0.00;0.00;;;1.30;97.60;;;;;;4924580;29;20083;-89
2023/04/27 04:45:49;;;;;;;0.00;0.00;;;1.40;98.20;;;;;;4924476;29;20050;-90
2023/04/27 04:48:21;;;;;;;0.10;0.10;;;1.40;98.70;;;;;;4893337;29;20048;-89
2023/04/27 04:50:50;;;;;;;0.03;0.03;;;1.60;98.50;;;;;;4924136;29;20507;-89
2023/04/27 04:53:15;;;;;;;0.00;0.00;;;1.60;97.70;;;;;;4923780;29;20047;-89
2023/04/27 04:55:41;;;;;;;0.00;0.00;;;2.10;97.70;;;;;;4923580;29;20055;-89
2023/04/27 04:58:10;;;;;;;0.00;0.00;;;1.60;98.10;;;;;;4923909;29;20083;-89
2023/04/27 05:00:39;;;;;;;0.00;0.00;;;1.50;97.90;;;;;;4923822;29;20051;-89
2023/04/27 05:03:06;;;;;;;0.43;0.13;;;1.60;97.70;;;;;;4925133;29;20052;-90
2023/04/27 05:05:39;;;;;;;0.00;0.00;;;1.70;98.10;;;;;;4923327;29;20052;-89
2023/04/27 05:08:05;;;;;;;0.00;0.00;;;1.70;98.20;;;;;;4892291;29;20055;-89
2023/04/27 05:10:37;;;;;;;0.00;0.00;;;1.70;98.00;;;;;;4923310;29;20052;-88
2023/04/27 05:13:05;;;;;;;0.00;0.00;;;1.80;98.10;;;;;;4908298;29;20114;-89
2023/04/27 05:15:31;;;;;;;0.00;0.00;;;1.90;98.90;;;;;;4922818;29;20440;-89
2023/04/27 05:17:57;;;;;;;0.00;0.00;;;1.80;99.00;;;;;;4922608;29;20064;-88
2023/04/27 05:20:26;;;;;;;0.00;0.00;;;1.80;98.50;;;;;;4923172;29;20083;-88
2023/04/27 05:22:51;;;;;;;0.00;0.00;;;1.90;97.80;;;;;;4923072;29;20044;-88
2023/04/27 05:25:17;;;;;;;0.00;0.00;;;1.90;98.00;;;;;;4922627;29;20048;-89
2023/04/27 05:27:43;;;;;;;0.00;0.00;;;2.00;97.80;;;;;;4906821;29;20119;-88
2023/04/27 05:30:10;;;;;;;0.00;0.00;;;2.00;97.50;;;;;;4923185;29;20138;-88
2023/04/27 05:32:43;;;;;;;0.00;0.00;;;2.10;96.20;;;;;;4906900;29;20098;-88
2023/04/27 05:35:17;;;;;;;0.00;0.00;;;2.70;97.10;;;;;;4922978;29;20046;-88
2023/04/27 05:37:48;;;;;;;0.13;0.07;;;2.90;97.70;;;;;;4923096;29;20505;-88
2023/04/27 05:40:31;;;;;;;0.17;0.17;;;2.40;98.10;;;;;;4908087;29;20350;-88
2023/04/27 05:43:10;;;;;;;;;;;;;;;;;;;;;
2023/04/27 05:45:59;;;;;;;0.85;0.15;;;2.40;98.70;;;;;;4931995;29;20048;-88
2023/04/27 05:48:31;;;;;;;0.00;0.00;;;2.50;98.90;;;;;;4944196;29;20083;-88
2023/04/27 05:51:03;;;;;;;0.00;0.00;;;2.60;99.10;;;;;;4891192;29;20403;-88
2023/04/27 05:53:29;;;;;;;0.00;0.00;;;2.60;99.20;;;;;;4890812;29;20502;-89
2023/04/27 05:56:03;;;;;;;0.00;0.00;;;2.60;99.30;;;;;;4937693;29;20047;-88
2023/04/27 05:58:42;;;;;;;0.10;0.10;;;2.80;99.50;;;;;;4922923;29;20138;-88
2023/04/27 06:01:07;;;;;;;0.00;0.00;;;3.10;99.80;;;;;;4907348;29;20465;-88
2023/04/27 06:03:48;;;;;;;0.00;0.00;;;3.40;99.00;;;;;;4923798;29;20051;-88
2023/04/27 06:06:14;;;;;;;0.00;0.00;;;3.50;98.80;;;;;;4906901;29;20372;-87
2023/04/27 06:08:45;;;;;;;0.00;0.00;;;4.10;98.90;;;;;;4921478;29;20090;-87
2023/04/27 06:11:14;;;;;;;0.05;0.00;;;3.90;97.80;;;;;;4905384;29;20052;-87
2023/04/27 06:13:45;;;;;;;1.60;0.00;;;4.20;96.30;;;;;;4921385;29;20098;-87
2023/04/27 06:16:17;;;;;;;0.00;0.00;;;4.10;96.10;;;;;;4906454;29;20111;-87
2023/04/27 06:18:42;;;;;;;0.03;0.03;;;4.50;95.00;;;;;;4905310;29;20060;-86
2023/04/27 06:21:08;;;;;;;0.00;0.00;;;4.30;94.60;;;;;;4889263;29;20043;-86
2023/04/27 06:23:34;;;;;;;0.00;0.00;;;4.40;93.70;;;;;;4920949;29;20059;-84
2023/04/27 06:26:00;;;;;;;0.00;0.00;;;5.10;95.90;;;;;;4936872;29;20058;-85
2023/04/27 06:28:26;;;;;;;0.00;0.00;;;4.70;96.90;;;;;;4904529;29;20424;-85
2023/04/27 06:30:53;;;;;;;0.00;0.00;;;4.90;94.40;;;;;;4889855;29;20400;-84
2023/04/27 06:33:19;;;;;;;0.00;0.00;;;5.10;95.30;;;;;;4920567;29;20051;-85
2023/04/27 06:35:45;;;;;;;0.00;0.00;;;5.30;93.70;;;;;;4904962;29;20047;-85
2023/04/27 06:38:10;;;;;;;2.38;0.20;;;5.50;93.50;;;;;;4904815;29;20060;-85
2023/04/27 06:40:36;;;;;;;5.38;1.75;;;5.70;94.00;;;;;;4920395;29;20062;-85
2023/04/27 06:43:02;;;;;;;0.10;0.00;;;6.00;90.70;;;;;;4905164;29;20101;-84
2023/04/27 06:45:30;;;;;;;0.00;0.00;;;6.40;91.50;;;;;;4904773;29;20054;-86
2023/04/27 06:47:56;;;;;;;0.00;0.00;;;6.70;90.60;;;;;;4904566;29;20043;-86
2023/04/27 06:50:21;;;;;;;0.55;0.20;;;7.10;78.40;;;;;;4920696;29;20047;-88
2023/04/27 06:52:47;;;;;;;0.00;0.00;;;7.90;80.60;;;;;;4920195;29;20058;-86
2023/04/27 06:55:13;;;;;;;0.00;0.00;;;9.10;67.30;;;;;;4920606;29;20040;-86
2023/04/27 06:57:39;;;;;;;0.00;0.00;;;10.20;29.50;;;;;;4920761;29;20055;-84
2023/04/27 07:00:05;;;;;;;0.20;0.05;;;11.20;1.00;;;;;;4920176;29;20499;-85
2023/04/27 07:02:31;;;;;;;0.00;0.00;;;12.20;1.00;;;;;;4905064;29;20139;-84
2023/04/27 07:04:57;;;;;;;0.00;0.00;;;12.90;1.00;;;;;;4931383;29;20644;-85
2023/04/27 07:07:23;;;;;;;0.00;0.00;;;13.30;1.00;;;;;;4936313;29;20079;-85
2023/04/27 07:09:48;;;;;;;0.00;0.00;;;13.70;1.00;;;;;;4905382;29;20055;-86
2023/04/27 07:12:14;;;;;;;0.00;0.00;;;14.20;99.90;;;;;;4936030;29;20047;-84
2023/04/27 07:14:49;;;;;;;0.55;0.10;;;14.80;99.90;;;;;;4904576;29;20062;-87
2023/04/27 07:17:15;;;;;;;;;;;15.20;99.90;;;;;;4936527;29;20055;-87
2023/04/27 07:19:41;;;;;;;0.00;0.00;;;15.40;99.90;;;;;;4936430;29;19923;-84
2023/04/27 07:22:06;;;;;;;0.00;0.00;;;15.30;99.90;;;;;;4905133;29;20051;-87
2023/04/27 07:24:35;;;;;;;0.00;0.00;;;14.80;99.90;;;;;;4936543;29;20055;-86
2023/04/27 07:27:02;;;;;;;1.45;0.90;;;14.00;1.00;;;;;;4919464;29;20044;-86
2023/04/27 07:29:29;;;;;;;0.00;0.00;;;13.30;1.00;;;;;;4919565;29;20484;-86
2023/04/27 07:31:55;;;;;;;0.45;0.00;;;13.10;1.00;;;;;;4936215;29;20052;-87
2023/04/27 07:34:21;;;;;;;0.00;0.00;;;13.00;1.00;;;;;;4919920;29;20142;-88
2023/04/27 07:36:58;;;;;;;0.00;0.00;;;13.00;1.00;;;;;;4920853;29;20138;-87
2023/04/27 07:39:30;;;;;;;0.00;0.00;;;12.60;99.90;;;;;;4922619;29;20047;-87
2023/04/27 07:41:57;;;;;;;0.10;0.00;;;12.60;1.00;;;;;;4924841;29;20463;-87
2023/04/27 07:44:41;;;;;;;1.75;0.65;;;12.70;1.00;;;;;;4924136;29;20130;-88
2023/04/27 07:47:09;;;;;;;0.00;0.00;;;12.50;1.00;;;;;;4923740;29;20495;-87
2023/04/27 07:49:36;;;;;;;0.00;0.00;;;12.50;1.00;;;;;;4939966;29;20078;-87
2023/04/27 07:52:09;;;;;;;0.00;0.00;;;12.70;1.00;;;;;;4924043;29;20052;-86
2023/04/27 07:54:38;;;;;;;0.00;0.00;;;12.90;1.00;;;;;;4940430;29;20047;-87
2023/04/27 07:57:13;;;;;;;0.00;0.00;;;13.00;1.00;;;;;;4924629;29;20058;-87
2023/04/27 07:59:39;;;;;;;0.00;0.00;;;13.10;1.00;;;;;;4925523;29;20138;-86
2023/04/27 08:02:18;;;;;;;;;;;;;;;;;;;;;
2023/04/27 08:04:47;;;;;;;0.20;0.00;;;12.90;99.90;;;;;;4939167;29;20507;-87
2023/04/27 08:07:16;;;;;;;0.00;0.00;;;12.80;99.90;;;;;;4923457;29;20050;-87
2023/04/27 08:09:42;;;;;;;0.15;0.00;;;13.00;99.90;;;;;;4923216;29;20524;-87
2023/04/27 08:12:08;;;;;;;0.00;0.00;;;13.10;99.90;;;;;;4923823;29;20054;-88
2023/04/27 08:14:41;;;;;;;0.00;0.00;;;13.00;99.90;;;;;;4923221;29;20040;-87
2023/04/27 08:17:17;;;;;;;0.00;0.00;;;13.10;99.90;;;;;;4924549;29;20140;-87
2023/04/27 08:19:46;;;;;;;0.00;0.00;;;13.30;99.90;;;;;;4924622;29;20123;-86
2023/04/27 08:22:14;;;;;;;0.00;0.00;;;13.50;99.90;;;;;;4923661;29;20054;-86
2023/04/27 08:24:40;;;;;;;0.00;0.00;;;13.70;2.80;;;;;;4923701;29;20147;-87
2023/04/27 08:27:15;;;;;;;0.00;0.00;;;13.80;58.80;;;;;;4923478;29;20079;-88
2023/04/27 08:29:51;;;;;;;0.00;0.00;;;13.80;1.00;;;;;;4939453;29;20087;-87
2023/04/27 08:32:20;;;;;;;0.00;0.00;;;13.70;1.00;;;;;;4923635;29;20059;-87
2023/04/27 08:34:55;;;;;;;0.05;0.00;;;13.70;1.00;;;;;;4923741;29;20040;-86
2023/04/27 08:37:21;;;;;;;0.00;0.00;;;13.80;99.90;;;;;;4923234;29;20047;-88
2023/04/27 08:39:52;;;;;;;0.00;0.00;;;13.80;99.90;;;;;;4923831;29;20054;-87
2023/04/27 08:42:18;;;;;;;0.00;0.00;;;13.70;99.90;;;;;;4938881;29;20074;-88
2023/04/27 08:47:53;;;;;;;0.60;0.00;;;13.60;1.00;;;;;;4917354;29;20051;-87
2023/04/27 08:50:26;;;;;;;0.00;0.00;;;13.70;99.90;;;;;;4922873;29;20055;-87
2023/04/27 08:52:52;;;;;;;0.00;0.00;;;13.90;99.90;;;;;;4922670;29;20044;-87
2023/04/27 08:55:38;;;;;;;0.05;0.05;;;14.00;99.90;;;;;;4923773;29;20441;-88
2023/04/27 08:58:35;;;;;;;0.00;0.00;;;13.90;28.80;;;;;;4952569;29;20052;-87
2023/04/27 09:01:14;;;;;;;0.73;0.15;;;13.90;99.90;;;;;;4922389;29;20050;-87
2023/04/27 09:03:41;;;;;;;0.00;0.00;;;13.60;99.90;;;;;;4922784;29;20067;-86
2023/04/27 09:06:12;;;;;;;0.00;0.00;;;13.20;1.00;;;;;;4907053;29;20386;-88
2023/04/27 09:09:10;;;;;;;0.00;0.00;;;13.30;32.00;;;;;;4909505;29;20445;-88
2023/04/27 09:12:05;;;;;;;0.00;0.00;;;13.30;99.90;;;;;;4922073;29;20051;-87
2023/04/27 09:15:07;;;;;;;;;;;;;;;;;;;;;
2023/04/27 09:17:45;;;;;;;0.00;0.00;;;13.50;99.90;;;;;;4912543;29;20131;-88
2023/04/27 09:20:14;;;;;;;;;;;13.70;99.90;;;;;;4907619;29;20047;-88
2023/04/27 09:23:03;;;;;;;0.00;0.00;;;13.50;30.00;;;;;;4907244;29;19982;-89
2023/04/27 09:25:56;;;;;;;;;;;;;;;;;;;;;
2023/04/27 09:28:55;;;;;;;0.00;0.00;;;13.80;97.50;;;;;;4909242;29;20048;-89
2023/04/27 09:31:40;;;;;;;;;;;;;;;;;;;;;
2023/04/27 09:34:27;;;;;;;0.30;0.20;;;14.30;78.10;;;;;;4922432;29;20489;-89
2023/04/27 09:36:58;;;;;;;0.00;0.00;;;14.40;99.90;;;;;;4893282;29;20392;-87
2023/04/27 09:39:33;;;;;;;0.00;0.00;;;14.60;99.90;;;;;;4908325;29;20082;-88
2023/04/27 09:42:06;;;;;;;0.00;0.00;;;14.60;99.90;;;;;;4922351;29;20082;-88
2023/04/27 09:45:04;;;;;;;;;;;;;;;;;;;;;
2023/04/27 09:47:51;;;;;;;0.00;0.00;;;15.30;99.90;;;;;;4922806;29;20122;-88
2023/04/27 09:50:34;;;;;;;0.75;0.57;;;15.30;2.60;;;;;;4906883;29;20073;-89
2023/04/27 09:53:12;;;;;;;;;;;;;;;;;;;;;
2023/04/27 09:56:18;;;;;;;0.00;0.00;;;15.60;99.90;;;;;;4921656;29;20048;-90
2023/04/27 10:06:21;;;;;;;0.15;0.15;;;15.80;99.90;;;;;;4889440;29;20071;-88
2023/04/27 10:09:30;;;;;;;0.00;0.00;;;15.90;99.90;;;;;;4905499;29;20158;-88
2023/04/27 10:12:12;;;;;;;0.32;0.20;;;16.00;18.10;;;;;;4920920;29;20135;-89
2023/04/27 10:14:57;;;;;;;;;;;15.90;1.00;;;;;;4906405;29;20130;-88
2023/04/27 10:17:30;;;;;;;0.00;0.00;;;16.20;70.30;;;;;;4906998;29;19929;-86
2023/04/27 10:20:17;;;;;;;0.00;0.00;;;16.30;1.00;;;;;;4906994;29;20043;-87
2023/04/27 10:22:56;;;;;;;0.00;0.00;;;16.40;85.30;;;;;;4906421;29;20062;-88
2023/04/27 10:25:57;;;;;;;0.00;0.00;;;16.60;50.40;;;;;;4892392;29;20044;-87
2023/04/27 10:28:39;;;;;;;0.00;0.00;;;16.60;99.90;;;;;;4921004;29;20501;-88
2023/04/27 10:31:14;;;;;;;0.00;0.00;;;16.90;92.70;;;;;;4906601;29;20055;-88
2023/04/27 10:34:24;;;;;;;;;;;;;;;;;;;;;
2023/04/27 10:37:37;;;;;;;2.33;0.55;;;17.00;49.80;;;;;;4924098;29;20236;-88
2023/04/27 10:40:16;;;;;;;0.10;0.00;;;17.10;1.00;;;;;;4881670;29;20465;-89
2023/04/27 10:42:51;;;;;;;0.00;0.00;;;16.90;1.00;;;;;;4893176;29;20459;-89
2023/04/27 10:45:32;;;;;;;0.00;0.00;;;17.00;1.00;;;;;;4921587;29;20065;-89
2023/04/27 10:49:04;;;;;;;0.00;0.00;;;17.00;1.00;;;;;;4905539;29;20075;-89
2023/04/27 10:51:51;;;;;;;0.32;0.13;;;17.20;99.90;;;;;;4909422;29;20059;-89
2023/04/27 10:54:27;;;;;;;0.00;0.00;;;17.60;1.00;;;;;;4909966;29;20096;-89
2023/04/27 10:57:03;;;;;;;0.00;0.00;;;17.90;1.00;;;;;;4920469;29;20401;-89
2023/04/27 10:59:29;;;;;;;0.10;0.10;;;18.10;99.90;;;;;;4908448;29;20044;-88
2023/04/27 11:01:58;;;;;;;0.10;0.00;;;17.90;99.90;;;;;;4939263;29;20055;-90
2023/04/27 11:04:37;;;;;;;0.00;0.00;;;18.00;99.90;;;;;;4922562;29;20050;-89
2023/04/27 11:07:03;;;;;;;0.00;0.00;;;17.90;99.90;;;;;;4923598;29;20081;-88
2023/04/27 11:09:34;;;;;;;0.00;0.00;;;17.60;99.90;;;;;;4923240;29;20526;-88
2023/04/27 11:12:10;;;;;;;3.13;0.70;;;17.30;99.90;;;;;;4924016;29;20055;-88
2023/04/27 11:14:36;;;;;;;0.13;0.13;;;17.20;99.90;;;;;;4923116;29;20047;-89
2023/04/27 11:17:03;;;;;;;0.00;0.00;;;17.10;99.90;;;;;;4923781;29;20047;-89
2023/04/27 11:19:39;;;;;;;;;;;;;;;;;;;;;
2023/04/27 11:22:22;;;;;;;;;;;17.20;99.90;;;;;;4940695;29;20089;-87
2023/04/27 11:24:49;;;;;;;0.00;0.00;;;17.40;99.90;;;;;;4908211;29;19922;-88
2023/04/27 11:27:22;;;;;;;0.00;0.00;;;17.60;99.90;;;;;;4923468;29;20039;-88
2023/04/27 11:29:54;;;;;;;0.40;0.10;;;17.60;99.90;;;;;;4924798;29;20155;-88
2023/04/27 11:32:22;;;;;;;0.05;0.00;;;17.50;99.90;;;;;;4923945;29;20089;-88
2023/04/27 11:34:58;;;;;;;0.57;0.30;;;17.50;99.90;;;;;;4938956;29;20090;-88
2023/04/27 11:37:35;;;;;;;0.03;0.00;;;17.50;99.90;;;;;;4908777;29;20054;-88
2023/04/27 11:40:01;;;;;;;6.72;0.88;;;17.40;99.90;;;;;;4924652;29;20054;-88
2023/04/27 11:42:32;;;;;;;0.10;0.10;;;17.40;99.90;;;;;;4923981;29;20043;-88
2023/04/27 11:45:07;;;;;;;0.10;0.03;;;17.30;99.90;;;;;;4907200;29;20492;-88
2023/04/27 11:47:36;;;;;;;0.05;0.05;;;17.10;99.90;;;;;;4923941;29;20427;-89
2023/04/27 11:50:18;;;;;;;0.00;0.00;;;17.00;99.90;;;;;;4923725;29;20051;-89
2023/04/27 11:53:11;;;;;;;0.15;0.00;;;16.80;99.90;;;;;;4909243;29;20055;-88
2023/04/27 11:55:39;;;;;;;0.00;0.00;;;16.50;97.30;;;;;;4938694;29;20095;-88
2023/04/27 11:58:25;;;;;;;;;;;;;;;;;;;;;
2023/04/27 12:00:58;;;;;;;0.00;0.00;;;16.60;99.90;;;;;;4939226;29;20444;-89
2023/04/27 12:03:30;;;;;;;0.50;0.10;;;16.70;99.90;;;;;;4924068;29;20412;-89
2023/04/27 12:05:58;;;;;;;0.00;0.00;;;16.80;99.90;;;;;;4923289;29;20106;-89
2023/04/27 12:08:30;;;;;;;0.00;0.00;;;17.10;99.90;;;;;;4907351;29;20094;-89
2023/04/27 12:11:07;;;;;;;0.00;0.00;;;17.30;99.90;;;;;;4938930;29;20134;-89
2023/04/27 12:13:49;;;;;;;0.00;0.00;;;17.50;99.90;;;;;;4925261;29;20173;-89
2023/04/27 12:16:21;;;;;;;0.10;0.00;;;17.60;99.90;;;;;;4923372;29;20051;-88
2023/04/27 12:18:50;;;;;;;0.00;0.00;;;17.80;99.90;;;;;;4923134;29;20052;-89
2023/04/27 12:21:24;;;;;;;0.00;0.00;;;17.70;91.10;;;;;;4923446;29;20616;-89
2023/04/27 12:24:07;;;;;;;0.28;0.10;;;17.60;90.90;;;;;;4923712;29;20094;-89
2023/04/27 12:27:09;;;;;;;0.20;0.20;;;17.70;99.90;;;;;;4925916;29;20047;-88
2023/04/27 12:29:41;;;;;;;0.00;0.00;;;17.50;23.90;;;;;;4927049;29;20043;-89
2023/04/27 12:32:12;;;;;;;0.00;0.00;;;17.40;21.60;;;;;;4926262;29;20102;-89
2023/04/27 12:35:05;;;;;;;0.00;0.00;;;17.40;6.50;;;;;;4912947;29;20047;-89
2023/04/27 12:37:49;;;;;;;;;;;;;;;;;;;;;
2023/04/27 12:40:34;;;;;;;;;;;;;;;;;;;;;
2023/04/27 12:43:23;;;;;;;0.00;0.00;;;17.60;5.80;;;;;;4942770;29;20043;-90
2023/04/27 12:46:17;;;;;;;0.00;0.00;;;17.80;18.80;;;;;;4914878;29;20071;-89
2023/04/27 12:49:11;;;;;;;0.00;0.00;;;17.80;1.00;;;;;;4912003;29;20043;-89
2023/04/27 12:51:43;;;;;;;0.00;0.00;;;17.60;10.80;;;;;;4926811;29;20076;-89
2023/04/27 12:54:37;;;;;;;0.00;0.00;;;17.60;34.20;;;;;;4926917;29;20146;-90
2023/04/27 12:57:33;;;;;;;0.00;0.00;;;17.20;26.80;;;;;;4927744;29;20078;-90
2023/04/27 13:00:43;;;;;;;0.00;0.00;;;17.20;1.00;;;;;;4942315;29;20051;-89
2023/04/27 13:03:08;;;;;;;;;;;;;;;;;;;;;
2023/04/27 13:05:40;;;;;;;0.10;0.00;;;16.70;1.00;;;;;;4941563;29;20286;-90
2023/04/27 13:11:24;;;;;;;0.00;0.00;;;16.90;1.00;;;;;;4929173;29;20047;-90
2023/04/27 13:14:20;;;;;;;0.10;0.10;;;16.90;1.00;;;;;;4913246;29;20449;-89
2023/04/27 13:16:51;;;;;;;0.00;0.00;;;17.00;1.00;;;;;;4913004;29;20043;-89
2023/04/27 13:19:17;;;;;;;0.38;0.30;;;17.10;1.00;;;;;;4911756;29;20065;-88
2023/04/27 13:22:09;;;;;;;0.10;0.10;;;16.90;1.00;;;;;;4926117;29;20062;-89
2023/04/27 13:24:41;;;;;;;0.10;0.05;;;16.90;1.00;;;;;;4911245;29;20086;-89
2023/04/27 13:27:19;;;;;;;0.45;0.10;;;16.70;1.00;;;;;;4935321;29;20087;-90
2023/04/27 13:30:01;;;;;;;0.03;0.03;;;16.30;1.00;;;;;;4924907;29;20114;-89
2023/04/27 13:32:41;;;;;;;;;;;;;;;;;;;;;
2023/04/27 13:35:13;;;;;;;0.75;0.00;;;15.90;1.00;;;;;;4936741;29;20122;-88
2023/04/27 13:37:59;;;;;;;;;;;;;;;;;;;;;
2023/04/27 13:40:47;;;;;;;;;;;;;;;;;;;;;
2023/04/27 13:43:18;;;;;;;0.00;0.00;;;15.60;1.00;;;;;;4943524;29;20071;-89
2023/04/27 13:45:54;;;;;;;0.00;0.00;;;15.60;1.00;;;;;;4913346;29;20047;-89
2023/04/27 13:48:26;;;;;;;0.00;0.00;;;15.70;1.00;;;;;;4927447;29;20094;-89
2023/04/27 13:51:08;;;;;;;0.10;0.00;;;15.60;1.00;;;;;;4911612;29;20055;-90
2023/04/27 13:53:37;;;;;;;0.00;0.00;;;15.60;1.00;;;;;;4925955;29;20130;-89
2023/04/27 13:56:13;;;;;;;0.15;0.05;;;15.60;1.00;;;;;;4925677;29;20051;-89
2023/04/27 13:58:56;;;;;;;0.90;0.45;;;15.40;1.00;;;;;;4926671;29;20094;-89
2023/04/27 14:01:30;;;;;;;0.00;0.00;;;15.40;1.00;;;;;;4926869;29;20078;-89
2023/04/27 14:04:05;;;;;;;0.00;0.00;;;15.80;1.00;;;;;;4910804;29;20047;-90
2023/04/27 14:06:39;;;;;;;0.10;0.10;;;16.00;1.00;;;;;;4925427;29;20055;-88
2023/04/27 14:09:08;;;;;;;0.73;0.20;;;16.00;1.00;;;;;;4925915;29;20062;-88
2023/04/27 14:11:36;;;;;;;0.03;0.03;;;15.90;1.00;;;;;;4925128;29;20392;-88
2023/04/27 14:14:05;;;;;;;0.00;0.00;;;16.00;1.00;;;;;;4925144;29;20055;-88
2023/04/27 14:16:46;;;;;;;0.00;0.00;;;16.10;1.00;;;;;;4925094;29;20142;-88
2023/04/27 14:19:14;;;;;;;0.45;0.08;;;16.40;1.00;;;;;;4911038;29;20460;-88